X  Sluiten METAR luchtvaart weer gegevens      EHLW Leeuwarden Air Base
Temperatuur
11°C Temperatuur
6°C Dauwpunt
72% Vochtigheid



Wind
13 KM/U
8 MPH
4 M/S
7 KTS



70°
ONO
Huidig weer

Helder Helder
Luchtdruk 1029.92 (hPa) - 30.41 (inHg)
Zicht 6.2 (mijl) - 10 (km)
Vliegveld
Vliegveld code EHLW

Locatie : Leeuwarden Air Base
Afstand: 30 (km)

Metar:
EHLW 021425Z AUTO 07007KT 360V120 9999 NCD 11/06 Q1030 BLU NOSIG

Tijd: 02-03-2021 15:25 CET